Steward, IL (60553)

11:25 PM CST on February 06, 2016 (GMT -0600)
APRSWXNET | | Change Station
CLOSE
Current Station
Personal Weather Station
Location: Rochelle, IL
Elevation: 820 ft
Nearby Weather Stations

Elev 820 ft 41.88 °N, 89.08 °W | Updated 25 minutes ago

Mostly Cloudy
Mostly Cloudy
32 °F
Feels Like 32 °F
N
2
Wind Variable Wind from ESE
Gusts 0.0 mph

Today
High -- | Low -- °F
--% Chance of Precip.
Yesterday
High -- | Low -- °F
Precip. -- in
Pressure 30.04 in
Visibility 7.0 miles
Clouds Overcast 12000 ft
Windchill 32 °F
Dew Point 30 °F
Humidity 92%
Rainfall in
Snow Depth Not available.
7:03 AM 5:17 PM
Waning Crescent, 3% visible
METAR KRPJ 070515Z AUTO 18007KT 7SM OVC120 00/M01 A3004 RMK AO2 T10011009
Pressure 30.04 in
Visibility 7.0 miles
Clouds Overcast 12000 ft
Windchill 32 °F
Dew Point 30 °F
Humidity 92%
Rainfall in
Snow Depth Not available.
7:03 AM 5:17 PM
Waning Crescent, 3% visible
METAR KRPJ 070515Z AUTO 18007KT 7SM OVC120 00/M01 A3004 RMK AO2 T10011009

10-Day Weather Forecast

Almanac

Astronomy

Feb. 06, 2016 Rise Set
Actual Time
Civil Twilight
Nautical Twilight
Astronomical Twilight
Moon
Length of Visible Light
Length of Day
Tomorrow will be .
, % of the Moon is Illuminated

Today's Extremes

State Highs State Lows

Community

WunderPhotos

Upload Photos

1,891,163 photos uploaded!

WunderBlog® & News

Nearby

Air Quality

  Air Quality AQ Index Pollutant
Not available.

Snow Depth

Station Depth Elevation

Earthquake Activity

City Distance Mag. Time & Date
Minimum magnitude displayed is 2.5.

Coastal Water Temperatures

Place Temperature

Stations

Nearby Weather Stations

Station Location Temp. Windchill Dew Point Humidity Wind Precip. Elev Updated Type
                   

Watches & Warnings

There are currently no watches in effect.